Kennett, Missouri
Current Conditions -  °F | °C
As of 1:53 PM on Thursday 29 Jan 2015 (Local Time) from KHKA Reporting Station
Overcast Overcast  
Wind Chill: 12°   Ceiling: 3800
Heat Index: 12°   Visibility: 10mi
Dew Point:   Wind: 18mph
Humidity: 59%   Direction: 350°N
Pressure: 30.16"   Gusts: NA
Location:  36.24°N, 90.05°W
Report Text: KHKA 291953Z AUTO 35016KT 10SM OVC038 12/04 A3016 RMK AO2 SLP213 T01220044
Loading
Personal Weather Stations






























Interactive Weather Map New forecast layout! Learn more

10-Day Weather Forecast

Advertisements
Track Severe Weather on mobile